Gran Canaria > ESTACION METEOROLÓGICA Santa María de Guía

DATOS ACTUALES Online

Ultima actulizacion 33 minutos

19.9 ºC

Temperatura

69

Humedad (%)

995.06

Presión (mb)

0

Precipitación (mm)

4.4 N

Viento (Km/h)

DATOS DIARIOS

Temperatura últimas 24 horas (ºC)

Humedad últimas 24 horas (%)

Presión atmosférica últimas 24 horas (mb)

Precipitaciones últimas 23 horas (mm)

Viento últimas 24 horas (Km/h)

Hora Temperatura (°C) ºC Precipitación (mm) mm Presión (mb) mb Humedad (%) % Viento (Km/h) km/h
29 - 00:00 18.7 0 996 72 14.8 NO
29 - 01:00 18.4 0 996 72 9.5 N
29 - 02:00 18.4 0 995 72 9.7 NO
29 - 03:00 18.4 0 995 72 9.4 SO
29 - 04:00 18.5 0 994 72 7.5 SO
29 - 05:00 18.6 0 994 73 6.1 N
29 - 06:00 18.7 0 994 72 3.2 O
29 - 07:00 18.9 0 994 70 5.5 O
29 - 08:00 19.7 0 995 68 5.9 SO
29 - 09:00 20.6 0 996 64 6.8 SO
29 - 10:00 20.9 0 995 64 16.1 NW
29 - 11:00 21.3 0 995 66 17.1 NW
29 - 12:00 20.9 0 995 68 21.6 N
29 - 13:00 20.8 0 995 67 16.8 N
29 - 14:00 20.7 0 995 67 22.1 N
29 - 15:00 20.1 0 995 71 18.8 N
29 - 16:00 20.4 0 995 67 14.5 N
29 - 17:00 20.5 0 994 68 18.9 NO
29 - 18:00 20.6 0 994 64 16.5 N
29 - 19:00 20.2 0 994 69 16.3 N
29 - 20:00 19.9 0 994 69 13.8 NW
29 - 21:00 19.6 0 995 72 12.6 N
29 - 22:00 19.5 0 995 71 9.1 N
29 - 23:00 19.9 0 995 69 4.4 N
30 - 00:00
Apalmet utiliza cookies propias y de terceros para mejorar la usabilidad y la experiencia web. Política de cookies.